sensor_id;sensor_type;location;lat;lon;timestamp;temperature;humidity
57434;DHT22;43277;52.672;6.984;2023-07-02T00:00:59;16.90;99.90
57434;DHT22;43277;52.672;6.984;2023-07-02T00:03:24;16.90;99.90
57434;DHT22;43277;52.672;6.984;2023-07-02T00:05:50;16.90;99.90
57434;DHT22;43277;52.672;6.984;2023-07-02T00:08:21;16.90;99.90
57434;DHT22;43277;52.672;6.984;2023-07-02T00:10:46;16.90;99.90
57434;DHT22;43277;52.672;6.984;2023-07-02T00:13:12;16.90;99.90
57434;DHT22;43277;52.672;6.984;2023-07-02T00:15:38;16.80;99.90
57434;DHT22;43277;52.672;6.984;2023-07-02T00:18:03;16.80;99.90
57434;DHT22;43277;52.672;6.984;2023-07-02T00:20:29;16.80;99.90
57434;DHT22;43277;52.672;6.984;2023-07-02T00:22:56;16.80;99.90
57434;DHT22;43277;52.672;6.984;2023-07-02T00:25:22;16.70;99.90
57434;DHT22;43277;52.672;6.984;2023-07-02T00:27:47;16.60;99.90
57434;DHT22;43277;52.672;6.984;2023-07-02T00:30:13;16.60;99.90
57434;DHT22;43277;52.672;6.984;2023-07-02T00:32:39;16.60;99.90
57434;DHT22;43277;52.672;6.984;2023-07-02T00:35:05;16.60;99.90
57434;DHT22;43277;52.672;6.984;2023-07-02T00:37:30;16.60;99.90
57434;DHT22;43277;52.672;6.984;2023-07-02T00:39:57;16.50;99.90
57434;DHT22;43277;52.672;6.984;2023-07-02T00:42:22;16.50;99.90
57434;DHT22;43277;52.672;6.984;2023-07-02T00:44:49;16.50;99.90
57434;DHT22;43277;52.672;6.984;2023-07-02T00:47:17;16.50;99.90
57434;DHT22;43277;52.672;6.984;2023-07-02T00:49:43;16.40;99.90
57434;DHT22;43277;52.672;6.984;2023-07-02T00:52:09;16.30;99.90
57434;DHT22;43277;52.672;6.984;2023-07-02T00:54:36;16.30;99.90
57434;DHT22;43277;52.672;6.984;2023-07-02T00:57:02;16.30;99.90
57434;DHT22;43277;52.672;6.984;2023-07-02T00:59:30;16.30;99.90
57434;DHT22;43277;52.672;6.984;2023-07-02T01:01:56;16.40;99.90
57434;DHT22;43277;52.672;6.984;2023-07-02T01:04:22;16.40;99.90
57434;DHT22;43277;52.672;6.984;2023-07-02T01:06:53;16.30;99.90
57434;DHT22;43277;52.672;6.984;2023-07-02T01:09:23;16.40;99.90
57434;DHT22;43277;52.672;6.984;2023-07-02T01:11:54;16.40;99.90
57434;DHT22;43277;52.672;6.984;2023-07-02T01:14:30;16.40;99.90
57434;DHT22;43277;52.672;6.984;2023-07-02T01:16:57;16.30;99.90
57434;DHT22;43277;52.672;6.984;2023-07-02T01:19:54;16.40;99.90
57434;DHT22;43277;52.672;6.984;2023-07-02T01:22:26;16.30;99.90
57434;DHT22;43277;52.672;6.984;2023-07-02T01:24:52;16.30;99.90
57434;DHT22;43277;52.672;6.984;2023-07-02T01:27:18;16.30;99.90
57434;DHT22;43277;52.672;6.984;2023-07-02T01:29:44;16.20;99.90
57434;DHT22;43277;52.672;6.984;2023-07-02T01:32:16;16.30;99.90
57434;DHT22;43277;52.672;6.984;2023-07-02T01:34:41;16.20;99.90
57434;DHT22;43277;52.672;6.984;2023-07-02T01:37:14;16.30;99.90
57434;DHT22;43277;52.672;6.984;2023-07-02T01:39:40;16.30;99.90
57434;DHT22;43277;52.672;6.984;2023-07-02T01:42:09;16.20;99.90
57434;DHT22;43277;52.672;6.984;2023-07-02T01:44:35;16.20;99.90
57434;DHT22;43277;52.672;6.984;2023-07-02T01:47:01;16.20;99.90
57434;DHT22;43277;52.672;6.984;2023-07-02T01:49:27;16.10;99.90
57434;DHT22;43277;52.672;6.984;2023-07-02T01:51:54;16.10;99.90
57434;DHT22;43277;52.672;6.984;2023-07-02T01:54:21;16.20;99.90
57434;DHT22;43277;52.672;6.984;2023-07-02T01:56:47;16.20;99.90
57434;DHT22;43277;52.672;6.984;2023-07-02T01:59:13;16.20;99.90
57434;DHT22;43277;52.672;6.984;2023-07-02T02:01:39;16.10;99.90
57434;DHT22;43277;52.672;6.984;2023-07-02T02:04:08;16.20;99.90
57434;DHT22;43277;52.672;6.984;2023-07-02T02:06:34;16.20;99.90
57434;DHT22;43277;52.672;6.984;2023-07-02T02:09:00;16.20;99.90
57434;DHT22;43277;52.672;6.984;2023-07-02T02:11:26;16.30;99.90
57434;DHT22;43277;52.672;6.984;2023-07-02T02:13:52;16.20;99.90
57434;DHT22;43277;52.672;6.984;2023-07-02T02:16:17;16.20;99.90
57434;DHT22;43277;52.672;6.984;2023-07-02T02:18:43;16.30;99.90
57434;DHT22;43277;52.672;6.984;2023-07-02T02:21:09;16.20;99.90
57434;DHT22;43277;52.672;6.984;2023-07-02T02:23:35;16.20;99.90
57434;DHT22;43277;52.672;6.984;2023-07-02T02:26:00;16.10;99.90
57434;DHT22;43277;52.672;6.984;2023-07-02T02:28:26;16.10;99.90
57434;DHT22;43277;52.672;6.984;2023-07-02T02:30:52;16.10;99.90
57434;DHT22;43277;52.672;6.984;2023-07-02T02:33:17;16.00;99.90
57434;DHT22;43277;52.672;6.984;2023-07-02T02:35:43;15.90;99.90
57434;DHT22;43277;52.672;6.984;2023-07-02T02:38:08;15.80;99.90
57434;DHT22;43277;52.672;6.984;2023-07-02T02:40:34;15.80;99.90
57434;DHT22;43277;52.672;6.984;2023-07-02T02:43:00;15.70;99.90
57434;DHT22;43277;52.672;6.984;2023-07-02T02:45:26;15.70;99.90
57434;DHT22;43277;52.672;6.984;2023-07-02T02:47:51;15.70;99.90
57434;DHT22;43277;52.672;6.984;2023-07-02T02:50:17;15.60;99.90
57434;DHT22;43277;52.672;6.984;2023-07-02T02:52:42;15.50;99.90
57434;DHT22;43277;52.672;6.984;2023-07-02T02:55:09;15.50;99.90
57434;DHT22;43277;52.672;6.984;2023-07-02T02:57:36;15.40;99.90
57434;DHT22;43277;52.672;6.984;2023-07-02T03:00:02;15.40;99.90
57434;DHT22;43277;52.672;6.984;2023-07-02T03:02:28;15.40;99.90
57434;DHT22;43277;52.672;6.984;2023-07-02T03:04:54;15.30;99.90
57434;DHT22;43277;52.672;6.984;2023-07-02T03:07:22;15.30;99.90
57434;DHT22;43277;52.672;6.984;2023-07-02T03:09:47;15.30;99.90
57434;DHT22;43277;52.672;6.984;2023-07-02T03:12:13;15.30;99.90
57434;DHT22;43277;52.672;6.984;2023-07-02T03:14:39;15.20;99.90
57434;DHT22;43277;52.672;6.984;2023-07-02T03:17:04;15.10;99.90
57434;DHT22;43277;52.672;6.984;2023-07-02T03:19:30;15.00;99.90
57434;DHT22;43277;52.672;6.984;2023-07-02T03:21:56;15.00;99.90
57434;DHT22;43277;52.672;6.984;2023-07-02T03:24:21;15.00;99.90
57434;DHT22;43277;52.672;6.984;2023-07-02T03:26:47;15.00;99.90
57434;DHT22;43277;52.672;6.984;2023-07-02T03:29:13;14.90;99.90
57434;DHT22;43277;52.672;6.984;2023-07-02T03:31:39;14.90;99.90
57434;DHT22;43277;52.672;6.984;2023-07-02T03:34:09;14.90;99.90
57434;DHT22;43277;52.672;6.984;2023-07-02T03:36:36;14.80;99.90
57434;DHT22;43277;52.672;6.984;2023-07-02T03:39:02;14.80;99.90
57434;DHT22;43277;52.672;6.984;2023-07-02T03:41:28;14.70;99.90
57434;DHT22;43277;52.672;6.984;2023-07-02T03:43:53;14.70;99.90
57434;DHT22;43277;52.672;6.984;2023-07-02T03:46:19;14.70;99.90
57434;DHT22;43277;52.672;6.984;2023-07-02T03:48:45;14.60;99.90
57434;DHT22;43277;52.672;6.984;2023-07-02T03:51:11;14.60;99.90
57434;DHT22;43277;52.672;6.984;2023-07-02T03:53:42;14.60;99.90
57434;DHT22;43277;52.672;6.984;2023-07-02T03:56:08;14.50;99.90
57434;DHT22;43277;52.672;6.984;2023-07-02T03:58:34;14.60;99.90
57434;DHT22;43277;52.672;6.984;2023-07-02T04:01:00;14.50;99.90
57434;DHT22;43277;52.672;6.984;2023-07-02T04:03:26;14.50;99.90
57434;DHT22;43277;52.672;6.984;2023-07-02T04:05:51;14.40;99.90
57434;DHT22;43277;52.672;6.984;2023-07-02T04:08:17;14.60;99.90
57434;DHT22;43277;52.672;6.984;2023-07-02T04:10:43;14.60;99.90
57434;DHT22;43277;52.672;6.984;2023-07-02T04:13:09;14.60;99.90
57434;DHT22;43277;52.672;6.984;2023-07-02T04:15:35;14.60;99.90
57434;DHT22;43277;52.672;6.984;2023-07-02T04:18:00;14.50;99.90
57434;DHT22;43277;52.672;6.984;2023-07-02T04:20:27;14.50;99.90
57434;DHT22;43277;52.672;6.984;2023-07-02T04:22:54;14.60;99.90
57434;DHT22;43277;52.672;6.984;2023-07-02T04:25:20;14.60;99.90
57434;DHT22;43277;52.672;6.984;2023-07-02T04:27:46;14.70;99.90
57434;DHT22;43277;52.672;6.984;2023-07-02T04:30:12;14.60;99.90
57434;DHT22;43277;52.672;6.984;2023-07-02T04:32:38;14.60;99.90
57434;DHT22;43277;52.672;6.984;2023-07-02T04:35:07;14.60;99.90
57434;DHT22;43277;52.672;6.984;2023-07-02T04:37:34;14.60;99.90
57434;DHT22;43277;52.672;6.984;2023-07-02T04:40:00;14.70;99.90
57434;DHT22;43277;52.672;6.984;2023-07-02T04:42:27;14.80;99.90
57434;DHT22;43277;52.672;6.984;2023-07-02T04:44:54;14.80;99.90
57434;DHT22;43277;52.672;6.984;2023-07-02T04:47:20;14.80;99.90
57434;DHT22;43277;52.672;6.984;2023-07-02T04:49:46;14.70;99.90
57434;DHT22;43277;52.672;6.984;2023-07-02T04:52:11;14.80;99.90
57434;DHT22;43277;52.672;6.984;2023-07-02T04:54:37;14.80;99.90
57434;DHT22;43277;52.672;6.984;2023-07-02T04:57:03;15.00;99.90
57434;DHT22;43277;52.672;6.984;2023-07-02T04:59:29;15.00;99.90
57434;DHT22;43277;52.672;6.984;2023-07-02T05:01:54;15.00;99.90
57434;DHT22;43277;52.672;6.984;2023-07-02T05:04:20;15.10;99.90
57434;DHT22;43277;52.672;6.984;2023-07-02T05:06:46;15.20;99.90
57434;DHT22;43277;52.672;6.984;2023-07-02T05:09:11;15.20;99.90
57434;DHT22;43277;52.672;6.984;2023-07-02T05:11:37;15.30;99.90
57434;DHT22;43277;52.672;6.984;2023-07-02T05:14:03;15.40;99.90
57434;DHT22;43277;52.672;6.984;2023-07-02T05:16:28;15.40;99.90
57434;DHT22;43277;52.672;6.984;2023-07-02T05:18:54;15.40;99.90
57434;DHT22;43277;52.672;6.984;2023-07-02T05:21:20;15.50;99.90
57434;DHT22;43277;52.672;6.984;2023-07-02T05:23:47;15.40;99.90
57434;DHT22;43277;52.672;6.984;2023-07-02T05:26:13;15.50;99.90
57434;DHT22;43277;52.672;6.984;2023-07-02T05:28:38;15.50;99.90
57434;DHT22;43277;52.672;6.984;2023-07-02T05:31:04;15.70;99.90
57434;DHT22;43277;52.672;6.984;2023-07-02T05:33:29;15.70;99.90
57434;DHT22;43277;52.672;6.984;2023-07-02T05:35:57;15.70;99.90
57434;DHT22;43277;52.672;6.984;2023-07-02T05:38:23;15.80;99.90
57434;DHT22;43277;52.672;6.984;2023-07-02T05:40:49;15.90;99.90
57434;DHT22;43277;52.672;6.984;2023-07-02T05:43:15;15.90;99.90
57434;DHT22;43277;52.672;6.984;2023-07-02T05:45:41;16.10;99.90
57434;DHT22;43277;52.672;6.984;2023-07-02T05:48:06;16.10;99.90
57434;DHT22;43277;52.672;6.984;2023-07-02T05:50:32;16.10;99.90
57434;DHT22;43277;52.672;6.984;2023-07-02T05:52:57;16.20;99.90
57434;DHT22;43277;52.672;6.984;2023-07-02T05:55:23;16.30;99.90
57434;DHT22;43277;52.672;6.984;2023-07-02T05:57:49;16.30;99.90
57434;DHT22;43277;52.672;6.984;2023-07-02T06:00:15;16.30;99.90
57434;DHT22;43277;52.672;6.984;2023-07-02T06:02:40;16.40;99.90
57434;DHT22;43277;52.672;6.984;2023-07-02T06:05:06;16.50;99.90
57434;DHT22;43277;52.672;6.984;2023-07-02T06:07:32;16.50;99.90
57434;DHT22;43277;52.672;6.984;2023-07-02T06:09:58;16.60;99.90
57434;DHT22;43277;52.672;6.984;2023-07-02T06:12:23;16.70;99.90
57434;DHT22;43277;52.672;6.984;2023-07-02T06:14:49;16.60;99.90
57434;DHT22;43277;52.672;6.984;2023-07-02T06:17:15;16.80;99.90
57434;DHT22;43277;52.672;6.984;2023-07-02T06:19:41;16.90;99.90
57434;DHT22;43277;52.672;6.984;2023-07-02T06:22:06;17.00;99.90
57434;DHT22;43277;52.672;6.984;2023-07-02T06:24:32;17.10;99.90
57434;DHT22;43277;52.672;6.984;2023-07-02T06:26:58;17.10;99.90
57434;DHT22;43277;52.672;6.984;2023-07-02T06:29:24;17.10;99.90
57434;DHT22;43277;52.672;6.984;2023-07-02T06:31:50;17.20;99.90
57434;DHT22;43277;52.672;6.984;2023-07-02T06:34:16;17.20;99.90
57434;DHT22;43277;52.672;6.984;2023-07-02T06:36:42;17.30;99.90
57434;DHT22;43277;52.672;6.984;2023-07-02T06:39:08;17.50;99.90
57434;DHT22;43277;52.672;6.984;2023-07-02T06:41:35;17.50;99.90
57434;DHT22;43277;52.672;6.984;2023-07-02T06:44:01;17.50;99.90
57434;DHT22;43277;52.672;6.984;2023-07-02T06:46:27;17.60;99.90
57434;DHT22;43277;52.672;6.984;2023-07-02T06:48:54;17.50;99.90
57434;DHT22;43277;52.672;6.984;2023-07-02T06:51:20;17.50;99.90
57434;DHT22;43277;52.672;6.984;2023-07-02T06:53:46;17.50;99.90
57434;DHT22;43277;52.672;6.984;2023-07-02T06:56:12;17.60;99.90
57434;DHT22;43277;52.672;6.984;2023-07-02T06:58:42;17.60;99.90
57434;DHT22;43277;52.672;6.984;2023-07-02T07:01:07;17.70;99.90
57434;DHT22;43277;52.672;6.984;2023-07-02T07:03:34;17.80;99.90
57434;DHT22;43277;52.672;6.984;2023-07-02T07:06:00;17.90;99.90
57434;DHT22;43277;52.672;6.984;2023-07-02T07:08:26;17.80;99.90
57434;DHT22;43277;52.672;6.984;2023-07-02T07:10:51;17.70;99.90
57434;DHT22;43277;52.672;6.984;2023-07-02T07:13:17;17.80;99.90
57434;DHT22;43277;52.672;6.984;2023-07-02T07:15:43;17.90;99.90
57434;DHT22;43277;52.672;6.984;2023-07-02T07:18:09;18.00;99.90
57434;DHT22;43277;52.672;6.984;2023-07-02T07:20:35;18.20;99.90
57434;DHT22;43277;52.672;6.984;2023-07-02T07:23:02;18.20;99.90
57434;DHT22;43277;52.672;6.984;2023-07-02T07:25:28;18.20;99.90
57434;DHT22;43277;52.672;6.984;2023-07-02T07:27:53;18.10;99.90
57434;DHT22;43277;52.672;6.984;2023-07-02T07:30:20;17.90;99.90
57434;DHT22;43277;52.672;6.984;2023-07-02T07:32:51;17.80;99.90
57434;DHT22;43277;52.672;6.984;2023-07-02T07:35:18;17.80;99.90
57434;DHT22;43277;52.672;6.984;2023-07-02T07:37:44;17.80;99.90
57434;DHT22;43277;52.672;6.984;2023-07-02T07:40:11;17.90;99.90
57434;DHT22;43277;52.672;6.984;2023-07-02T07:42:36;18.00;99.90
57434;DHT22;43277;52.672;6.984;2023-07-02T07:45:05;17.90;99.90
57434;DHT22;43277;52.672;6.984;2023-07-02T07:47:31;18.00;99.90
57434;DHT22;43277;52.672;6.984;2023-07-02T07:49:57;18.20;99.90
57434;DHT22;43277;52.672;6.984;2023-07-02T07:52:22;18.30;99.90
57434;DHT22;43277;52.672;6.984;2023-07-02T07:54:48;18.50;99.90
57434;DHT22;43277;52.672;6.984;2023-07-02T07:57:14;18.50;99.90
57434;DHT22;43277;52.672;6.984;2023-07-02T07:59:40;18.50;99.90
57434;DHT22;43277;52.672;6.984;2023-07-02T08:02:06;18.60;99.90
57434;DHT22;43277;52.672;6.984;2023-07-02T08:04:31;18.50;99.90
57434;DHT22;43277;52.672;6.984;2023-07-02T08:06:57;18.40;99.90
57434;DHT22;43277;52.672;6.984;2023-07-02T08:09:26;18.30;99.90
57434;DHT22;43277;52.672;6.984;2023-07-02T08:11:51;18.30;99.60
57434;DHT22;43277;52.672;6.984;2023-07-02T08:14:17;18.10;99.90
57434;DHT22;43277;52.672;6.984;2023-07-02T08:16:46;18.10;99.90
57434;DHT22;43277;52.672;6.984;2023-07-02T08:19:11;18.10;99.90
57434;DHT22;43277;52.672;6.984;2023-07-02T08:21:37;18.10;99.90
57434;DHT22;43277;52.672;6.984;2023-07-02T08:24:03;18.00;99.90
57434;DHT22;43277;52.672;6.984;2023-07-02T08:26:29;17.90;99.90
57434;DHT22;43277;52.672;6.984;2023-07-02T08:28:56;17.90;99.90
57434;DHT22;43277;52.672;6.984;2023-07-02T08:31:22;17.70;99.90
57434;DHT22;43277;52.672;6.984;2023-07-02T08:33:47;17.60;99.90
57434;DHT22;43277;52.672;6.984;2023-07-02T08:36:13;17.60;99.90
57434;DHT22;43277;52.672;6.984;2023-07-02T08:38:41;17.70;99.90
57434;DHT22;43277;52.672;6.984;2023-07-02T08:41:09;18.00;99.90
57434;DHT22;43277;52.672;6.984;2023-07-02T08:43:35;18.40;98.40
57434;DHT22;43277;52.672;6.984;2023-07-02T08:46:01;18.70;97.00
57434;DHT22;43277;52.672;6.984;2023-07-02T08:48:28;18.90;97.30
57434;DHT22;43277;52.672;6.984;2023-07-02T08:50:55;19.00;95.80
57434;DHT22;43277;52.672;6.984;2023-07-02T08:53:21;19.00;95.60
57434;DHT22;43277;52.672;6.984;2023-07-02T08:55:57;19.00;95.50
57434;DHT22;43277;52.672;6.984;2023-07-02T08:58:23;19.10;96.20
57434;DHT22;43277;52.672;6.984;2023-07-02T09:01:10;19.20;94.90
57434;DHT22;43277;52.672;6.984;2023-07-02T09:03:38;19.50;93.20
57434;DHT22;43277;52.672;6.984;2023-07-02T09:06:05;19.50;93.60
57434;DHT22;43277;52.672;6.984;2023-07-02T09:08:30;19.40;93.30
57434;DHT22;43277;52.672;6.984;2023-07-02T09:11:12;19.40;91.40
57434;DHT22;43277;52.672;6.984;2023-07-02T09:13:49;19.50;91.00
57434;DHT22;43277;52.672;6.984;2023-07-02T09:16:27;19.60;90.50
57434;DHT22;43277;52.672;6.984;2023-07-02T09:21:25;19.60;92.10
57434;DHT22;43277;52.672;6.984;2023-07-02T09:23:51;19.60;92.20
57434;DHT22;43277;52.672;6.984;2023-07-02T09:26:21;19.60;92.90
57434;DHT22;43277;52.672;6.984;2023-07-02T09:28:47;19.70;91.20
57434;DHT22;43277;52.672;6.984;2023-07-02T09:31:12;19.80;90.90
57434;DHT22;43277;52.672;6.984;2023-07-02T09:33:38;19.80;91.60
57434;DHT22;43277;52.672;6.984;2023-07-02T09:36:04;19.80;90.80
57434;DHT22;43277;52.672;6.984;2023-07-02T09:38:30;19.80;90.30
57434;DHT22;43277;52.672;6.984;2023-07-02T09:40:56;19.70;90.90
57434;DHT22;43277;52.672;6.984;2023-07-02T09:43:22;19.70;90.80
57434;DHT22;43277;52.672;6.984;2023-07-02T09:45:52;19.60;91.10
57434;DHT22;43277;52.672;6.984;2023-07-02T09:48:24;19.70;90.40
57434;DHT22;43277;52.672;6.984;2023-07-02T09:50:53;19.50;89.10
57434;DHT22;43277;52.672;6.984;2023-07-02T09:53:19;19.30;90.40
57434;DHT22;43277;52.672;6.984;2023-07-02T09:55:45;19.20;90.30
57434;DHT22;43277;52.672;6.984;2023-07-02T09:58:11;19.10;91.30
57434;DHT22;43277;52.672;6.984;2023-07-02T10:00:38;19.10;91.80
57434;DHT22;43277;52.672;6.984;2023-07-02T10:03:04;19.30;92.90
57434;DHT22;43277;52.672;6.984;2023-07-02T10:05:33;19.50;92.00
57434;DHT22;43277;52.672;6.984;2023-07-02T10:08:11;19.50;91.80
57434;DHT22;43277;52.672;6.984;2023-07-02T10:10:37;19.50;92.70
57434;DHT22;43277;52.672;6.984;2023-07-02T10:13:03;19.50;91.60
57434;DHT22;43277;52.672;6.984;2023-07-02T10:15:30;19.50;91.40
57434;DHT22;43277;52.672;6.984;2023-07-02T10:18:01;19.40;91.60
57434;DHT22;43277;52.672;6.984;2023-07-02T10:20:38;19.50;92.30
57434;DHT22;43277;52.672;6.984;2023-07-02T10:23:05;19.70;92.10
57434;DHT22;43277;52.672;6.984;2023-07-02T10:25:33;20.00;91.40
57434;DHT22;43277;52.672;6.984;2023-07-02T10:28:01;20.10;91.30
57434;DHT22;43277;52.672;6.984;2023-07-02T10:30:39;20.00;92.00
57434;DHT22;43277;52.672;6.984;2023-07-02T10:33:17;20.10;92.20
57434;DHT22;43277;52.672;6.984;2023-07-02T10:35:48;20.10;92.10
57434;DHT22;43277;52.672;6.984;2023-07-02T10:40:44;20.10;90.90
57434;DHT22;43277;52.672;6.984;2023-07-02T10:43:10;19.90;90.60
57434;DHT22;43277;52.672;6.984;2023-07-02T10:45:36;19.60;91.40
57434;DHT22;43277;52.672;6.984;2023-07-02T10:48:08;19.50;92.00
57434;DHT22;43277;52.672;6.984;2023-07-02T10:50:35;19.30;92.10
57434;DHT22;43277;52.672;6.984;2023-07-02T10:53:00;19.20;91.60
57434;DHT22;43277;52.672;6.984;2023-07-02T10:55:27;19.10;93.00
57434;DHT22;43277;52.672;6.984;2023-07-02T10:58:07;19.00;92.20
57434;DHT22;43277;52.672;6.984;2023-07-02T11:00:49;18.90;92.70
57434;DHT22;43277;52.672;6.984;2023-07-02T11:03:26;18.80;93.70
57434;DHT22;43277;52.672;6.984;2023-07-02T11:05:52;18.80;94.00
57434;DHT22;43277;52.672;6.984;2023-07-02T11:08:18;18.80;93.90
57434;DHT22;43277;52.672;6.984;2023-07-02T11:10:46;18.80;94.80
57434;DHT22;43277;52.672;6.984;2023-07-02T11:13:19;18.90;95.80
57434;DHT22;43277;52.672;6.984;2023-07-02T11:15:45;19.10;95.00
57434;DHT22;43277;52.672;6.984;2023-07-02T11:18:12;19.40;94.20
57434;DHT22;43277;52.672;6.984;2023-07-02T11:20:39;19.80;91.60
57434;DHT22;43277;52.672;6.984;2023-07-02T11:23:08;20.00;91.40
57434;DHT22;43277;52.672;6.984;2023-07-02T11:25:41;20.10;90.70
57434;DHT22;43277;52.672;6.984;2023-07-02T11:28:07;20.30;90.40
57434;DHT22;43277;52.672;6.984;2023-07-02T11:30:33;20.60;90.40
57434;DHT22;43277;52.672;6.984;2023-07-02T11:33:00;20.90;86.10
57434;DHT22;43277;52.672;6.984;2023-07-02T11:35:35;21.00;83.40
57434;DHT22;43277;52.672;6.984;2023-07-02T11:38:01;20.90;83.80
57434;DHT22;43277;52.672;6.984;2023-07-02T11:40:27;21.10;83.40
57434;DHT22;43277;52.672;6.984;2023-07-02T11:42:52;21.10;84.40
57434;DHT22;43277;52.672;6.984;2023-07-02T11:45:18;21.30;83.60
57434;DHT22;43277;52.672;6.984;2023-07-02T11:47:44;21.60;79.20
57434;DHT22;43277;52.672;6.984;2023-07-02T11:50:10;21.70;78.00
57434;DHT22;43277;52.672;6.984;2023-07-02T11:52:35;21.80;76.90
57434;DHT22;43277;52.672;6.984;2023-07-02T11:55:01;21.80;76.30
57434;DHT22;43277;52.672;6.984;2023-07-02T11:57:27;21.60;78.20
57434;DHT22;43277;52.672;6.984;2023-07-02T11:59:52;21.50;80.20
57434;DHT22;43277;52.672;6.984;2023-07-02T12:02:18;21.60;79.30
57434;DHT22;43277;52.672;6.984;2023-07-02T12:04:44;21.70;78.60
57434;DHT22;43277;52.672;6.984;2023-07-02T12:07:10;21.50;78.40
57434;DHT22;43277;52.672;6.984;2023-07-02T12:09:36;21.30;78.60
57434;DHT22;43277;52.672;6.984;2023-07-02T12:12:02;21.00;79.60
57434;DHT22;43277;52.672;6.984;2023-07-02T12:14:28;21.20;81.10
57434;DHT22;43277;52.672;6.984;2023-07-02T12:16:54;21.50;78.70
57434;DHT22;43277;52.672;6.984;2023-07-02T12:19:19;21.60;76.10
57434;DHT22;43277;52.672;6.984;2023-07-02T12:21:45;21.60;78.10
57434;DHT22;43277;52.672;6.984;2023-07-02T12:24:11;21.40;77.60
57434;DHT22;43277;52.672;6.984;2023-07-02T12:26:37;21.30;78.00
57434;DHT22;43277;52.672;6.984;2023-07-02T12:29:03;21.60;76.60
57434;DHT22;43277;52.672;6.984;2023-07-02T12:31:29;21.90;77.30
57434;DHT22;43277;52.672;6.984;2023-07-02T12:33:55;22.00;75.40
57434;DHT22;43277;52.672;6.984;2023-07-02T12:36:21;22.20;76.20
57434;DHT22;43277;52.672;6.984;2023-07-02T12:38:46;22.40;71.90
57434;DHT22;43277;52.672;6.984;2023-07-02T12:41:12;22.10;70.60
57434;DHT22;43277;52.672;6.984;2023-07-02T12:43:38;21.80;71.50
57434;DHT22;43277;52.672;6.984;2023-07-02T12:46:04;21.60;75.40
57434;DHT22;43277;52.672;6.984;2023-07-02T12:48:29;21.60;75.80
57434;DHT22;43277;52.672;6.984;2023-07-02T12:50:58;21.70;72.30
57434;DHT22;43277;52.672;6.984;2023-07-02T12:53:25;22.00;72.70
57434;DHT22;43277;52.672;6.984;2023-07-02T12:55:51;22.10;72.10
57434;DHT22;43277;52.672;6.984;2023-07-02T12:58:16;22.60;74.00
57434;DHT22;43277;52.672;6.984;2023-07-02T13:00:42;22.80;72.60
57434;DHT22;43277;52.672;6.984;2023-07-02T13:03:12;22.90;73.20
57434;DHT22;43277;52.672;6.984;2023-07-02T13:05:38;23.10;70.60
57434;DHT22;43277;52.672;6.984;2023-07-02T13:08:05;23.00;68.50
57434;DHT22;43277;52.672;6.984;2023-07-02T13:10:33;22.90;68.10
57434;DHT22;43277;52.672;6.984;2023-07-02T13:12:59;22.80;68.80
57434;DHT22;43277;52.672;6.984;2023-07-02T13:15:25;22.80;67.60
57434;DHT22;43277;52.672;6.984;2023-07-02T13:17:50;22.70;66.70
57434;DHT22;43277;52.672;6.984;2023-07-02T13:20:16;22.50;66.70
57434;DHT22;43277;52.672;6.984;2023-07-02T13:22:42;22.30;66.10
57434;DHT22;43277;52.672;6.984;2023-07-02T13:25:08;22.20;68.50
57434;DHT22;43277;52.672;6.984;2023-07-02T13:27:33;22.20;65.60
57434;DHT22;43277;52.672;6.984;2023-07-02T13:29:59;22.20;66.90
57434;DHT22;43277;52.672;6.984;2023-07-02T13:32:25;22.40;65.80
57434;DHT22;43277;52.672;6.984;2023-07-02T13:34:51;22.50;66.20
57434;DHT22;43277;52.672;6.984;2023-07-02T13:37:16;22.60;65.70
57434;DHT22;43277;52.672;6.984;2023-07-02T13:39:46;22.90;66.20
57434;DHT22;43277;52.672;6.984;2023-07-02T13:42:11;23.30;65.30
57434;DHT22;43277;52.672;6.984;2023-07-02T13:44:37;23.50;64.30
57434;DHT22;43277;52.672;6.984;2023-07-02T13:47:03;23.40;65.30
57434;DHT22;43277;52.672;6.984;2023-07-02T13:49:30;23.30;66.90
57434;DHT22;43277;52.672;6.984;2023-07-02T13:51:56;23.50;64.90
57434;DHT22;43277;52.672;6.984;2023-07-02T13:54:22;23.70;64.70
57434;DHT22;43277;52.672;6.984;2023-07-02T13:56:47;23.70;63.90
57434;DHT22;43277;52.672;6.984;2023-07-02T13:59:15;23.50;62.50
57434;DHT22;43277;52.672;6.984;2023-07-02T14:01:41;23.30;65.10
57434;DHT22;43277;52.672;6.984;2023-07-02T14:04:07;23.30;65.50
57434;DHT22;43277;52.672;6.984;2023-07-02T14:06:32;23.20;64.20
57434;DHT22;43277;52.672;6.984;2023-07-02T14:08:58;23.20;63.10
57434;DHT22;43277;52.672;6.984;2023-07-02T14:11:25;22.80;64.60
57434;DHT22;43277;52.672;6.984;2023-07-02T14:13:53;22.40;65.50
57434;DHT22;43277;52.672;6.984;2023-07-02T14:16:18;22.20;66.40
57434;DHT22;43277;52.672;6.984;2023-07-02T14:18:44;22.10;66.40
57434;DHT22;43277;52.672;6.984;2023-07-02T14:21:10;21.90;67.00
57434;DHT22;43277;52.672;6.984;2023-07-02T14:23:35;21.70;69.10
57434;DHT22;43277;52.672;6.984;2023-07-02T14:26:01;21.60;68.70
57434;DHT22;43277;52.672;6.984;2023-07-02T14:28:27;21.60;68.00
57434;DHT22;43277;52.672;6.984;2023-07-02T14:31:03;21.80;66.50
57434;DHT22;43277;52.672;6.984;2023-07-02T14:33:30;21.90;67.40
57434;DHT22;43277;52.672;6.984;2023-07-02T14:35:57;22.20;65.90
57434;DHT22;43277;52.672;6.984;2023-07-02T14:38:24;22.30;64.20
57434;DHT22;43277;52.672;6.984;2023-07-02T14:40:50;22.20;64.70
57434;DHT22;43277;52.672;6.984;2023-07-02T14:43:17;22.00;64.70
57434;DHT22;43277;52.672;6.984;2023-07-02T14:45:50;21.80;66.00
57434;DHT22;43277;52.672;6.984;2023-07-02T14:48:17;21.70;66.70
57434;DHT22;43277;52.672;6.984;2023-07-02T14:50:56;21.70;69.20
57434;DHT22;43277;52.672;6.984;2023-07-02T14:53:22;21.90;68.50
57434;DHT22;43277;52.672;6.984;2023-07-02T14:55:48;22.30;70.50
57434;DHT22;43277;52.672;6.984;2023-07-02T14:58:16;22.60;67.30
57434;DHT22;43277;52.672;6.984;2023-07-02T15:00:49;22.60;65.10
57434;DHT22;43277;52.672;6.984;2023-07-02T15:03:15;22.50;67.00
57434;DHT22;43277;52.672;6.984;2023-07-02T15:05:41;22.40;67.80
57434;DHT22;43277;52.672;6.984;2023-07-02T15:08:08;22.40;68.90
57434;DHT22;43277;52.672;6.984;2023-07-02T15:10:34;22.50;65.20
57434;DHT22;43277;52.672;6.984;2023-07-02T15:13:00;22.70;66.60
57434;DHT22;43277;52.672;6.984;2023-07-02T15:15:26;22.90;67.10
57434;DHT22;43277;52.672;6.984;2023-07-02T15:17:51;23.00;64.30
57434;DHT22;43277;52.672;6.984;2023-07-02T15:20:17;22.80;63.50
57434;DHT22;43277;52.672;6.984;2023-07-02T15:22:46;22.50;64.70
57434;DHT22;43277;52.672;6.984;2023-07-02T15:25:11;22.30;65.40
57434;DHT22;43277;52.672;6.984;2023-07-02T15:27:37;22.20;67.80
57434;DHT22;43277;52.672;6.984;2023-07-02T15:30:03;22.10;66.50
57434;DHT22;43277;52.672;6.984;2023-07-02T15:32:29;21.80;67.50